sensor_id;sensor_type;location;lat;lon;timestamp;pressure;altitude;pressure_sealevel;temperature;humidity
35551;BME280;21655;46.056;13.616;2022-07-09T00:00:06;101069.56;;;17.66;72.27
35551;BME280;21655;46.056;13.616;2022-07-09T00:02:31;101078.03;;;17.72;71.99
35551;BME280;21655;46.056;13.616;2022-07-09T00:04:57;101081.78;;;17.52;72.36
35551;BME280;21655;46.056;13.616;2022-07-09T00:07:22;101078.94;;;17.45;72.83
35551;BME280;21655;46.056;13.616;2022-07-09T00:09:48;101071.25;;;17.60;71.43
35551;BME280;21655;46.056;13.616;2022-07-09T00:12:13;101081.41;;;17.55;71.68
35551;BME280;21655;46.056;13.616;2022-07-09T00:14:39;101077.34;;;17.64;71.83
35551;BME280;21655;46.056;13.616;2022-07-09T00:17:04;101084.97;;;17.42;72.06
35551;BME280;21655;46.056;13.616;2022-07-09T00:19:30;101072.50;;;17.45;71.32
35551;BME280;21655;46.056;13.616;2022-07-09T00:21:55;101079.72;;;17.33;71.34
35551;BME280;21655;46.056;13.616;2022-07-09T00:24:21;101076.25;;;17.31;70.73
35551;BME280;21655;46.056;13.616;2022-07-09T00:26:46;101077.09;;;17.25;71.78
35551;BME280;21655;46.056;13.616;2022-07-09T00:29:12;101074.47;;;17.23;71.05
35551;BME280;21655;46.056;13.616;2022-07-09T00:31:37;101074.47;;;17.23;69.94
35551;BME280;21655;46.056;13.616;2022-07-09T00:34:02;101080.41;;;17.35;68.48
35551;BME280;21655;46.056;13.616;2022-07-09T00:36:28;101074.09;;;17.33;66.75
35551;BME280;21655;46.056;13.616;2022-07-09T00:38:54;101080.97;;;17.24;65.76
35551;BME280;21655;46.056;13.616;2022-07-09T00:41:19;101076.63;;;17.21;70.57
35551;BME280;21655;46.056;13.616;2022-07-09T00:43:49;101082.66;;;16.91;75.15
35551;BME280;21655;46.056;13.616;2022-07-09T00:46:15;101080.63;;;16.58;74.90
35551;BME280;21655;46.056;13.616;2022-07-09T00:48:41;101084.69;;;16.55;75.08
35551;BME280;21655;46.056;13.616;2022-07-09T00:51:07;101079.94;;;16.77;74.19
35551;BME280;21655;46.056;13.616;2022-07-09T00:53:33;101084.53;;;16.84;72.81
35551;BME280;21655;46.056;13.616;2022-07-09T00:55:59;101082.44;;;16.93;70.91
35551;BME280;21655;46.056;13.616;2022-07-09T00:58:26;101077.34;;;17.02;67.53
35551;BME280;21655;46.056;13.616;2022-07-09T01:00:53;101074.94;;;17.27;64.42
35551;BME280;21655;46.056;13.616;2022-07-09T01:03:20;101074.19;;;17.39;61.26
35551;BME280;21655;46.056;13.616;2022-07-09T01:05:45;101066.25;;;17.49;61.58
35551;BME280;21655;46.056;13.616;2022-07-09T01:08:11;101077.91;;;17.46;61.52
35551;BME280;21655;46.056;13.616;2022-07-09T01:10:37;101078.94;;;17.45;63.88
35551;BME280;21655;46.056;13.616;2022-07-09T01:13:03;101079.38;;;17.42;64.29
35551;BME280;21655;46.056;13.616;2022-07-09T01:15:29;101076.16;;;17.45;64.29
35551;BME280;21655;46.056;13.616;2022-07-09T01:17:55;101066.00;;;17.44;64.73
35551;BME280;21655;46.056;13.616;2022-07-09T01:20:23;101072.03;;;17.41;65.25
35551;BME280;21655;46.056;13.616;2022-07-09T01:22:49;101064.38;;;17.29;65.40
35551;BME280;21655;46.056;13.616;2022-07-09T01:25:16;101059.44;;;17.31;65.94
35551;BME280;21655;46.056;13.616;2022-07-09T01:27:42;101061.72;;;17.21;66.93
35551;BME280;21655;46.056;13.616;2022-07-09T01:30:08;101055.84;;;17.09;64.55
35551;BME280;21655;46.056;13.616;2022-07-09T01:32:34;101054.38;;;17.13;66.02
35551;BME280;21655;46.056;13.616;2022-07-09T01:34:59;101066.03;;;17.17;64.76
35551;BME280;21655;46.056;13.616;2022-07-09T01:37:25;101058.78;;;17.29;64.92
35551;BME280;21655;46.056;13.616;2022-07-09T01:39:50;101051.28;;;17.36;64.56
35551;BME280;21655;46.056;13.616;2022-07-09T01:42:19;101057.91;;;17.28;64.50
35551;BME280;21655;46.056;13.616;2022-07-09T01:44:46;101049.38;;;17.36;61.99
35551;BME280;21655;46.056;13.616;2022-07-09T01:47:12;101052.44;;;17.48;60.49
35551;BME280;21655;46.056;13.616;2022-07-09T01:49:40;101044.41;;;17.85;55.31
35551;BME280;21655;46.056;13.616;2022-07-09T01:52:06;101043.69;;;18.37;49.96
35551;BME280;21655;46.056;13.616;2022-07-09T01:54:31;101055.41;;;18.79;48.58
35551;BME280;21655;46.056;13.616;2022-07-09T01:56:57;101039.41;;;18.93;48.28
35551;BME280;21655;46.056;13.616;2022-07-09T01:59:22;101036.97;;;19.02;47.87
35551;BME280;21655;46.056;13.616;2022-07-09T02:01:48;101039.59;;;19.17;47.06
35551;BME280;21655;46.056;13.616;2022-07-09T02:04:13;101034.81;;;19.17;49.02
35551;BME280;21655;46.056;13.616;2022-07-09T02:06:38;101031.41;;;18.96;53.42
35551;BME280;21655;46.056;13.616;2022-07-09T02:09:04;101036.38;;;18.62;56.03
35551;BME280;21655;46.056;13.616;2022-07-09T02:11:29;101040.03;;;18.36;56.55
35551;BME280;21655;46.056;13.616;2022-07-09T02:13:55;101039.03;;;17.97;58.52
35551;BME280;21655;46.056;13.616;2022-07-09T02:16:21;101042.84;;;17.76;58.40
35551;BME280;21655;46.056;13.616;2022-07-09T02:18:46;101042.38;;;17.60;59.45
35551;BME280;21655;46.056;13.616;2022-07-09T02:21:12;101045.28;;;17.45;60.75
35551;BME280;21655;46.056;13.616;2022-07-09T02:23:37;101045.19;;;17.26;60.68
35551;BME280;21655;46.056;13.616;2022-07-09T02:26:03;101048.81;;;17.26;61.36
35551;BME280;21655;46.056;13.616;2022-07-09T02:28:29;101043.75;;;17.36;60.84
35551;BME280;21655;46.056;13.616;2022-07-09T02:30:54;101051.09;;;17.37;59.64
35551;BME280;21655;46.056;13.616;2022-07-09T02:33:20;101036.22;;;17.43;58.24
35551;BME280;21655;46.056;13.616;2022-07-09T02:35:46;101042.94;;;17.49;58.25
35551;BME280;21655;46.056;13.616;2022-07-09T02:38:11;101034.75;;;17.47;58.07
35551;BME280;21655;46.056;13.616;2022-07-09T02:40:37;101037.56;;;17.47;57.73
35551;BME280;21655;46.056;13.616;2022-07-09T02:43:02;101034.09;;;17.45;58.73
35551;BME280;21655;46.056;13.616;2022-07-09T02:45:28;101041.84;;;17.43;59.01
35551;BME280;21655;46.056;13.616;2022-07-09T02:47:53;101034.84;;;17.33;59.54
35551;BME280;21655;46.056;13.616;2022-07-09T02:50:19;101036.00;;;17.38;59.36
35551;BME280;21655;46.056;13.616;2022-07-09T02:52:44;101040.88;;;17.30;58.60
35551;BME280;21655;46.056;13.616;2022-07-09T02:55:10;101049.91;;;17.25;58.52
35551;BME280;21655;46.056;13.616;2022-07-09T02:57:35;101040.47;;;17.33;58.67
35551;BME280;21655;46.056;13.616;2022-07-09T03:00:00;101042.38;;;17.26;60.28
35551;BME280;21655;46.056;13.616;2022-07-09T03:02:26;101044.25;;;17.19;60.53
35551;BME280;21655;46.056;13.616;2022-07-09T03:04:51;101045.97;;;17.13;60.44
35551;BME280;21655;46.056;13.616;2022-07-09T03:07:17;101039.81;;;16.97;60.87
35551;BME280;21655;46.056;13.616;2022-07-09T03:09:42;101043.22;;;16.93;61.71
35551;BME280;21655;46.056;13.616;2022-07-09T03:12:08;101056.50;;;16.84;62.09
35551;BME280;21655;46.056;13.616;2022-07-09T03:14:34;101051.50;;;16.73;62.68
35551;BME280;21655;46.056;13.616;2022-07-09T03:16:59;101059.19;;;16.71;63.36
35551;BME280;21655;46.056;13.616;2022-07-09T03:19:25;101061.91;;;16.58;64.02
35551;BME280;21655;46.056;13.616;2022-07-09T03:21:50;101056.91;;;16.54;64.43
35551;BME280;21655;46.056;13.616;2022-07-09T03:24:15;101059.00;;;16.45;65.83
35551;BME280;21655;46.056;13.616;2022-07-09T03:26:41;101059.00;;;16.45;65.99
35551;BME280;21655;46.056;13.616;2022-07-09T03:29:06;101051.91;;;16.49;66.11
35551;BME280;21655;46.056;13.616;2022-07-09T03:31:32;101061.19;;;16.50;66.93
35551;BME280;21655;46.056;13.616;2022-07-09T03:33:58;101052.72;;;16.43;66.89
35551;BME280;21655;46.056;13.616;2022-07-09T03:36:23;101058.63;;;16.34;67.95
35551;BME280;21655;46.056;13.616;2022-07-09T03:38:49;101052.16;;;16.33;68.02
35551;BME280;21655;46.056;13.616;2022-07-09T03:41:14;101057.09;;;16.31;68.12
35551;BME280;21655;46.056;13.616;2022-07-09T03:43:39;101060.22;;;16.22;69.09
35551;BME280;21655;46.056;13.616;2022-07-09T03:46:05;101067.72;;;16.36;68.89
35551;BME280;21655;46.056;13.616;2022-07-09T03:48:30;101060.00;;;16.38;69.26
35551;BME280;21655;46.056;13.616;2022-07-09T03:50:56;101066.84;;;16.35;68.79
35551;BME280;21655;46.056;13.616;2022-07-09T03:53:22;101060.78;;;16.32;68.96
35551;BME280;21655;46.056;13.616;2022-07-09T03:55:47;101059.00;;;16.31;69.38
35551;BME280;21655;46.056;13.616;2022-07-09T03:58:13;101054.81;;;16.20;70.00
35551;BME280;21655;46.056;13.616;2022-07-09T04:00:38;101056.28;;;16.16;68.79
35551;BME280;21655;46.056;13.616;2022-07-09T04:03:03;101054.97;;;16.12;69.12
35551;BME280;21655;46.056;13.616;2022-07-09T04:05:29;101055.03;;;16.19;69.93
35551;BME280;21655;46.056;13.616;2022-07-09T04:07:54;101062.22;;;16.28;69.56
35551;BME280;21655;46.056;13.616;2022-07-09T04:10:20;101063.50;;;16.25;69.32
35551;BME280;21655;46.056;13.616;2022-07-09T04:12:46;101056.69;;;16.13;68.59
35551;BME280;21655;46.056;13.616;2022-07-09T04:15:11;101058.69;;;16.19;69.42
35551;BME280;21655;46.056;13.616;2022-07-09T04:17:37;101063.88;;;16.22;70.08
35551;BME280;21655;46.056;13.616;2022-07-09T04:20:03;101071.28;;;16.30;69.27
35551;BME280;21655;46.056;13.616;2022-07-09T04:22:29;101070.69;;;16.34;69.45
35551;BME280;21655;46.056;13.616;2022-07-09T04:24:54;101071.38;;;16.36;68.64
35551;BME280;21655;46.056;13.616;2022-07-09T04:27:20;101072.63;;;16.34;69.54
35551;BME280;21655;46.056;13.616;2022-07-09T04:29:45;101062.59;;;16.39;68.55
35551;BME280;21655;46.056;13.616;2022-07-09T04:32:10;101063.03;;;16.43;68.54
35551;BME280;21655;46.056;13.616;2022-07-09T04:34:38;101064.44;;;16.53;68.83
35551;BME280;21655;46.056;13.616;2022-07-09T04:37:03;101063.19;;;16.56;69.06
35551;BME280;21655;46.056;13.616;2022-07-09T04:39:29;101057.09;;;16.52;68.37
35551;BME280;21655;46.056;13.616;2022-07-09T04:41:54;101048.03;;;16.50;68.56
35551;BME280;21655;46.056;13.616;2022-07-09T04:44:20;101059.44;;;16.70;68.45
35551;BME280;21655;46.056;13.616;2022-07-09T04:46:45;101056.06;;;17.08;66.34
35551;BME280;21655;46.056;13.616;2022-07-09T04:49:11;101058.66;;;17.43;64.44
35551;BME280;21655;46.056;13.616;2022-07-09T04:51:36;101053.44;;;17.81;62.68
35551;BME280;21655;46.056;13.616;2022-07-09T04:54:02;101061.53;;;18.03;61.38
35551;BME280;21655;46.056;13.616;2022-07-09T04:56:27;101055.31;;;18.14;62.44
35551;BME280;21655;46.056;13.616;2022-07-09T04:58:53;101049.31;;;18.43;60.91
35551;BME280;21655;46.056;13.616;2022-07-09T05:01:22;101051.06;;;18.57;60.56
35551;BME280;21655;46.056;13.616;2022-07-09T05:03:49;101049.34;;;18.76;61.19
35551;BME280;21655;46.056;13.616;2022-07-09T05:06:18;101047.59;;;18.94;60.16
35551;BME280;21655;46.056;13.616;2022-07-09T05:08:45;101041.34;;;19.18;58.64
35551;BME280;21655;46.056;13.616;2022-07-09T05:11:10;101033.53;;;19.20;58.61
35551;BME280;21655;46.056;13.616;2022-07-09T05:13:37;101037.59;;;19.37;57.51
35551;BME280;21655;46.056;13.616;2022-07-09T05:16:03;101037.78;;;19.42;57.14
35551;BME280;21655;46.056;13.616;2022-07-09T05:18:29;101041.00;;;19.58;56.40
35551;BME280;21655;46.056;13.616;2022-07-09T05:20:56;101032.28;;;19.73;56.23
35551;BME280;21655;46.056;13.616;2022-07-09T05:23:22;101032.84;;;19.88;56.98
35551;BME280;21655;46.056;13.616;2022-07-09T05:25:47;101033.00;;;19.99;55.41
35551;BME280;21655;46.056;13.616;2022-07-09T05:28:12;101030.56;;;20.16;54.86
35551;BME280;21655;46.056;13.616;2022-07-09T05:30:38;101028.97;;;20.26;54.01
35551;BME280;21655;46.056;13.616;2022-07-09T05:33:04;101034.84;;;20.25;54.49
35551;BME280;21655;46.056;13.616;2022-07-09T05:35:30;101029.19;;;20.56;54.25
35551;BME280;21655;46.056;13.616;2022-07-09T05:37:55;101029.09;;;20.69;52.99
35551;BME280;21655;46.056;13.616;2022-07-09T05:40:21;101026.28;;;21.17;52.06
35551;BME280;21655;46.056;13.616;2022-07-09T05:42:46;101023.25;;;21.37;51.92
35551;BME280;21655;46.056;13.616;2022-07-09T05:45:12;101016.44;;;21.44;51.23
35551;BME280;21655;46.056;13.616;2022-07-09T05:47:37;101018.91;;;21.16;51.95
35551;BME280;21655;46.056;13.616;2022-07-09T05:50:03;101024.34;;;21.36;51.19
35551;BME280;21655;46.056;13.616;2022-07-09T05:52:28;101021.53;;;21.36;51.67
35551;BME280;21655;46.056;13.616;2022-07-09T05:54:54;101007.03;;;21.68;50.65
35551;BME280;21655;46.056;13.616;2022-07-09T05:57:19;101005.34;;;21.97;50.54
35551;BME280;21655;46.056;13.616;2022-07-09T05:59:45;101002.66;;;22.31;49.51
35551;BME280;21655;46.056;13.616;2022-07-09T06:02:10;101001.66;;;22.55;48.88
35551;BME280;21655;46.056;13.616;2022-07-09T06:04:36;100995.31;;;22.83;48.12
35551;BME280;21655;46.056;13.616;2022-07-09T06:07:01;101001.31;;;22.98;47.48
35551;BME280;21655;46.056;13.616;2022-07-09T06:09:27;100994.22;;;23.29;47.04
35551;BME280;21655;46.056;13.616;2022-07-09T06:11:52;101004.19;;;23.43;46.33
35551;BME280;21655;46.056;13.616;2022-07-09T06:14:18;100994.47;;;23.39;46.44
35551;BME280;21655;46.056;13.616;2022-07-09T06:16:44;100995.34;;;23.40;45.90
35551;BME280;21655;46.056;13.616;2022-07-09T06:19:12;100997.19;;;23.34;46.39
35551;BME280;21655;46.056;13.616;2022-07-09T06:21:38;100988.19;;;24.00;45.88
35551;BME280;21655;46.056;13.616;2022-07-09T06:24:04;100988.53;;;24.31;44.78
35551;BME280;21655;46.056;13.616;2022-07-09T06:26:30;100977.13;;;24.43;43.91
35551;BME280;21655;46.056;13.616;2022-07-09T06:28:57;100987.97;;;24.46;43.78
35551;BME280;21655;46.056;13.616;2022-07-09T06:31:22;100981.66;;;24.72;44.01
35551;BME280;21655;46.056;13.616;2022-07-09T06:33:48;100966.72;;;25.47;40.99
35551;BME280;21655;46.056;13.616;2022-07-09T06:36:14;100971.53;;;25.46;40.53
35551;BME280;21655;46.056;13.616;2022-07-09T06:38:39;100969.88;;;25.88;41.14
35551;BME280;21655;46.056;13.616;2022-07-09T06:41:23;100974.78;;;25.55;40.19
35551;BME280;21655;46.056;13.616;2022-07-09T06:43:49;100979.47;;;26.09;39.48
35551;BME280;21655;46.056;13.616;2022-07-09T06:46:14;100970.38;;;26.33;38.57
35551;BME280;21655;46.056;13.616;2022-07-09T06:48:40;100964.22;;;26.41;38.91
35551;BME280;21655;46.056;13.616;2022-07-09T06:51:05;100975.63;;;26.73;36.42
35551;BME280;21655;46.056;13.616;2022-07-09T06:53:30;100974.38;;;27.21;35.73
35551;BME280;21655;46.056;13.616;2022-07-09T06:55:56;100970.59;;;27.57;35.43
35551;BME280;21655;46.056;13.616;2022-07-09T06:58:21;100971.78;;;28.28;34.38
35551;BME280;21655;46.056;13.616;2022-07-09T07:00:47;100969.88;;;28.43;33.03
35551;BME280;21655;46.056;13.616;2022-07-09T07:03:12;100969.50;;;28.25;33.69
35551;BME280;21655;46.056;13.616;2022-07-09T07:05:38;100966.72;;;28.40;32.63
35551;BME280;21655;46.056;13.616;2022-07-09T07:08:03;100965.59;;;28.51;32.63
35551;BME280;21655;46.056;13.616;2022-07-09T07:10:29;100968.81;;;28.94;32.38
35551;BME280;21655;46.056;13.616;2022-07-09T07:12:54;100965.31;;;28.72;32.58
35551;BME280;21655;46.056;13.616;2022-07-09T07:15:21;100959.38;;;29.09;31.04
35551;BME280;21655;46.056;13.616;2022-07-09T07:17:46;100964.16;;;29.38;31.47
35551;BME280;21655;46.056;13.616;2022-07-09T07:20:14;100967.38;;;29.17;33.75
35551;BME280;21655;46.056;13.616;2022-07-09T07:22:39;100960.78;;;29.21;33.51
35551;BME280;21655;46.056;13.616;2022-07-09T07:25:05;100949.03;;;29.52;32.74
35551;BME280;21655;46.056;13.616;2022-07-09T07:27:31;100945.38;;;30.10;31.20
35551;BME280;21655;46.056;13.616;2022-07-09T07:29:56;100947.13;;;29.96;31.43
35551;BME280;21655;46.056;13.616;2022-07-09T07:32:22;100942.09;;;29.73;32.45
35551;BME280;21655;46.056;13.616;2022-07-09T07:34:47;100945.66;;;30.14;31.94
35551;BME280;21655;46.056;13.616;2022-07-09T07:37:13;100938.84;;;29.95;31.91
35551;BME280;21655;46.056;13.616;2022-07-09T07:39:38;100949.22;;;30.39;31.26
35551;BME280;21655;46.056;13.616;2022-07-09T07:42:04;100935.50;;;31.08;30.12
35551;BME280;21655;46.056;13.616;2022-07-09T07:44:32;100934.88;;;31.44;30.42
35551;BME280;21655;46.056;13.616;2022-07-09T07:46:57;100938.19;;;31.28;29.10
35551;BME280;21655;46.056;13.616;2022-07-09T07:49:23;100928.97;;;31.59;27.20
35551;BME280;21655;46.056;13.616;2022-07-09T07:51:48;100924.63;;;31.38;28.34
35551;BME280;21655;46.056;13.616;2022-07-09T07:54:13;100933.81;;;31.64;26.44
35551;BME280;21655;46.056;13.616;2022-07-09T07:56:39;100926.56;;;31.43;27.00
35551;BME280;21655;46.056;13.616;2022-07-09T07:59:05;100917.44;;;31.88;26.65
35551;BME280;21655;46.056;13.616;2022-07-09T08:01:30;100923.91;;;31.98;27.24
35551;BME280;21655;46.056;13.616;2022-07-09T08:03:56;100921.72;;;32.32;27.12
35551;BME280;21655;46.056;13.616;2022-07-09T08:06:21;100920.94;;;32.82;27.09
35551;BME280;21655;46.056;13.616;2022-07-09T08:08:50;100914.19;;;33.24;24.39
35551;BME280;21655;46.056;13.616;2022-07-09T08:11:16;100918.56;;;33.21;23.11
35551;BME280;21655;46.056;13.616;2022-07-09T08:13:42;100912.56;;;32.86;23.39
35551;BME280;21655;46.056;13.616;2022-07-09T08:16:07;100910.25;;;33.33;23.51
35551;BME280;21655;46.056;13.616;2022-07-09T08:18:33;100914.25;;;33.50;23.28
35551;BME280;21655;46.056;13.616;2022-07-09T08:20:58;100911.94;;;33.93;22.06
35551;BME280;21655;46.056;13.616;2022-07-09T08:23:23;100907.31;;;33.06;22.78
35551;BME280;21655;46.056;13.616;2022-07-09T08:25:49;100911.03;;;32.56;22.42
35551;BME280;21655;46.056;13.616;2022-07-09T08:28:17;100900.69;;;33.38;22.72
35551;BME280;21655;46.056;13.616;2022-07-09T08:30:43;100902.28;;;33.30;20.79
35551;BME280;21655;46.056;13.616;2022-07-09T08:33:08;100899.75;;;33.42;22.00
35551;BME280;21655;46.056;13.616;2022-07-09T08:35:34;100900.19;;;33.62;20.88
35551;BME280;21655;46.056;13.616;2022-07-09T08:37:59;100895.03;;;33.33;21.13
35551;BME280;21655;46.056;13.616;2022-07-09T08:40:25;100897.28;;;33.49;20.83
35551;BME280;21655;46.056;13.616;2022-07-09T08:42:53;100890.81;;;33.57;20.65
35551;BME280;21655;46.056;13.616;2022-07-09T08:45:20;100895.50;;;33.66;20.90
35551;BME280;21655;46.056;13.616;2022-07-09T08:47:46;100888.91;;;33.79;20.20
35551;BME280;21655;46.056;13.616;2022-07-09T08:50:12;100883.31;;;34.10;21.85
35551;BME280;21655;46.056;13.616;2022-07-09T08:52:39;100883.44;;;34.18;19.33
35551;BME280;21655;46.056;13.616;2022-07-09T08:55:05;100877.94;;;34.44;20.27
35551;BME280;21655;46.056;13.616;2022-07-09T08:57:33;100884.38;;;34.63;20.38
35551;BME280;21655;46.056;13.616;2022-07-09T09:00:00;100887.44;;;34.66;20.48
35551;BME280;21655;46.056;13.616;2022-07-09T09:02:25;100880.91;;;34.74;19.96
35551;BME280;21655;46.056;13.616;2022-07-09T09:04:54;100884.28;;;34.90;19.83
35551;BME280;21655;46.056;13.616;2022-07-09T09:07:20;100873.63;;;34.99;18.57
35551;BME280;21655;46.056;13.616;2022-07-09T09:09:47;100872.50;;;35.08;19.33
35551;BME280;21655;46.056;13.616;2022-07-09T09:12:13;100871.69;;;35.38;19.35
35551;BME280;21655;46.056;13.616;2022-07-09T09:14:39;100863.50;;;34.79;20.51
35551;BME280;21655;46.056;13.616;2022-07-09T09:17:09;100864.81;;;34.73;19.67
35551;BME280;21655;46.056;13.616;2022-07-09T09:19:37;100862.50;;;34.84;19.92
35551;BME280;21655;46.056;13.616;2022-07-09T09:22:04;100870.47;;;35.31;19.50
35551;BME280;21655;46.056;13.616;2022-07-09T09:24:29;100858.59;;;35.32;19.38
35551;BME280;21655;46.056;13.616;2022-07-09T09:26:59;100845.88;;;35.33;19.46
35551;BME280;21655;46.056;13.616;2022-07-09T09:29:25;100855.75;;;35.71;19.62
35551;BME280;21655;46.056;13.616;2022-07-09T09:31:51;100859.41;;;35.24;19.56
35551;BME280;21655;46.056;13.616;2022-07-09T09:34:18;100854.13;;;34.96;19.32
35551;BME280;21655;46.056;13.616;2022-07-09T09:36:44;100859.09;;;34.82;19.96
35551;BME280;21655;46.056;13.616;2022-07-09T09:41:41;100863.00;;;35.30;20.46
35551;BME280;21655;46.056;13.616;2022-07-09T09:44:12;100847.22;;;35.27;18.24
35551;BME280;21655;46.056;13.616;2022-07-09T09:46:39;100852.66;;;34.41;19.95
35551;BME280;21655;46.056;13.616;2022-07-09T09:49:06;100842.31;;;34.40;20.72
35551;BME280;21655;46.056;13.616;2022-07-09T09:51:36;100845.91;;;34.89;19.21
35551;BME280;21655;46.056;13.616;2022-07-09T09:54:03;100839.03;;;34.99;19.89
35551;BME280;21655;46.056;13.616;2022-07-09T09:56:30;100836.94;;;35.82;18.28
35551;BME280;21655;46.056;13.616;2022-07-09T09:58:56;100837.53;;;35.32;18.88
35551;BME280;21655;46.056;13.616;2022-07-09T10:01:25;100824.84;;;35.71;18.00
35551;BME280;21655;46.056;13.616;2022-07-09T10:03:50;100828.75;;;35.37;19.30
35551;BME280;21655;46.056;13.616;2022-07-09T10:06:16;100837.69;;;34.96;20.33
35551;BME280;21655;46.056;13.616;2022-07-09T10:08:41;100832.16;;;33.40;21.07
35551;BME280;21655;46.056;13.616;2022-07-09T10:11:07;100828.25;;;33.62;21.03
35551;BME280;21655;46.056;13.616;2022-07-09T10:13:33;100818.63;;;33.27;20.56
35551;BME280;21655;46.056;13.616;2022-07-09T10:15:59;100823.97;;;32.88;22.65
35551;BME280;21655;46.056;13.616;2022-07-09T10:18:24;100821.50;;;33.53;21.15
35551;BME280;21655;46.056;13.616;2022-07-09T10:20:55;100811.50;;;33.78;20.51
35551;BME280;21655;46.056;13.616;2022-07-09T10:23:22;100807.91;;;33.46;20.43
35551;BME280;21655;46.056;13.616;2022-07-09T10:25:49;100808.41;;;33.21;20.56
35551;BME280;21655;46.056;13.616;2022-07-09T10:28:22;100802.34;;;33.22;21.10
35551;BME280;21655;46.056;13.616;2022-07-09T10:30:47;100806.84;;;32.83;21.14
35551;BME280;21655;46.056;13.616;2022-07-09T10:33:34;100804.22;;;32.68;22.37
35551;BME280;21655;46.056;13.616;2022-07-09T10:36:13;100802.03;;;32.60;22.61
35551;BME280;21655;46.056;13.616;2022-07-09T10:38:38;100794.31;;;33.19;21.50
35551;BME280;21655;46.056;13.616;2022-07-09T10:41:04;100798.72;;;31.60;22.65
35551;BME280;21655;46.056;13.616;2022-07-09T10:43:48;100804.75;;;31.59;22.61
35551;BME280;21655;46.056;13.616;2022-07-09T10:46:15;100801.00;;;32.00;22.16
35551;BME280;21655;46.056;13.616;2022-07-09T10:48:42;100788.31;;;32.06;22.49
35551;BME280;21655;46.056;13.616;2022-07-09T10:51:16;100797.16;;;31.91;22.63
35551;BME280;21655;46.056;13.616;2022-07-09T10:53:42;100791.91;;;31.10;23.41
35551;BME280;21655;46.056;13.616;2022-07-09T10:56:07;100792.84;;;30.43;24.28
35551;BME280;21655;46.056;13.616;2022-07-09T10:58:33;100795.28;;;30.26;24.19
35551;BME280;21655;46.056;13.616;2022-07-09T11:01:02;100790.75;;;30.59;23.56
35551;BME280;21655;46.056;13.616;2022-07-09T11:03:30;100791.13;;;30.42;23.78
35551;BME280;21655;46.056;13.616;2022-07-09T11:05:56;100775.31;;;30.83;24.34
35551;BME280;21655;46.056;13.616;2022-07-09T11:08:23;100785.66;;;31.31;24.21
35551;BME280;21655;46.056;13.616;2022-07-09T11:10:48;100781.25;;;31.57;22.84
35551;BME280;21655;46.056;13.616;2022-07-09T11:13:14;100773.34;;;31.72;22.62
35551;BME280;21655;46.056;13.616;2022-07-09T11:15:40;100775.34;;;31.72;23.00
35551;BME280;21655;46.056;13.616;2022-07-09T11:18:06;100774.38;;;31.58;23.20
35551;BME280;21655;46.056;13.616;2022-07-09T11:20:37;100776.44;;;31.76;24.26
35551;BME280;21655;46.056;13.616;2022-07-09T11:23:03;100774.31;;;31.21;23.98
35551;BME280;21655;46.056;13.616;2022-07-09T11:25:29;100760.38;;;31.33;23.00
35551;BME280;21655;46.056;13.616;2022-07-09T11:27:55;100761.69;;;30.70;23.63
35551;BME280;21655;46.056;13.616;2022-07-09T11:30:21;100765.56;;;30.51;25.14
35551;BME280;21655;46.056;13.616;2022-07-09T11:32:47;100757.38;;;30.39;24.15
35551;BME280;21655;46.056;13.616;2022-07-09T11:35:32;100754.44;;;30.49;25.01
35551;BME280;21655;46.056;13.616;2022-07-09T11:38:01;100747.63;;;30.74;25.24
35551;BME280;21655;46.056;13.616;2022-07-09T11:40:27;100750.72;;;30.49;24.99
35551;BME280;21655;46.056;13.616;2022-07-09T11:42:53;100746.47;;;30.98;24.58
35551;BME280;21655;46.056;13.616;2022-07-09T11:45:29;100741.22;;;31.29;24.85
35551;BME280;21655;46.056;13.616;2022-07-09T11:48:11;100736.59;;;31.33;23.58
35551;BME280;21655;46.056;13.616;2022-07-09T11:50:45;100749.38;;;31.40;24.78
35551;BME280;21655;46.056;13.616;2022-07-09T11:53:21;100732.59;;;31.70;24.27
35551;BME280;21655;46.056;13.616;2022-07-09T11:55:58;100737.38;;;31.80;23.16
35551;BME280;21655;46.056;13.616;2022-07-09T11:58:24;100720.16;;;31.38;23.33
35551;BME280;21655;46.056;13.616;2022-07-09T12:00:49;100729.88;;;31.60;23.44
35551;BME280;21655;46.056;13.616;2022-07-09T12:03:23;100723.84;;;31.99;23.89
35551;BME280;21655;46.056;13.616;2022-07-09T12:05:50;100719.13;;;32.40;22.13
35551;BME280;21655;46.056;13.616;2022-07-09T12:08:26;100719.09;;;32.85;22.11
35551;BME280;21655;46.056;13.616;2022-07-09T12:10:51;100711.66;;;33.11;22.19
35551;BME280;21655;46.056;13.616;2022-07-09T12:13:17;100712.78;;;32.56;22.33
35551;BME280;21655;46.056;13.616;2022-07-09T12:15:43;100710.41;;;33.04;23.03
35551;BME280;21655;46.056;13.616;2022-07-09T12:18:10;100710.72;;;32.89;22.29
35551;BME280;21655;46.056;13.616;2022-07-09T12:20:36;100698.56;;;33.19;22.06
35551;BME280;21655;46.056;13.616;2022-07-09T12:23:01;100707.00;;;32.88;22.29
35551;BME280;21655;46.056;13.616;2022-07-09T12:25:27;100706.63;;;32.63;23.04
35551;BME280;21655;46.056;13.616;2022-07-09T12:27:52;100698.38;;;33.29;22.27
35551;BME280;21655;46.056;13.616;2022-07-09T12:30:18;100700.78;;;33.35;21.00
35551;BME280;21655;46.056;13.616;2022-07-09T12:32:44;100694.72;;;33.10;21.71
35551;BME280;21655;46.056;13.616;2022-07-09T12:35:10;100689.72;;;33.15;21.60
35551;BME280;21655;46.056;13.616;2022-07-09T12:37:37;100694.63;;;32.88;21.92